N4469W -KVGT
Flight info
| Callsign | N4469W |
|---|---|
| Flight time | N/A |
| Altitude | 10000 |
| Route | |
| Aircraft | BE36/L-VGD/C |
Departure
| Time | N/A |
|---|---|
| Airport | - |
Arrival
| Time | 2026-05-04 00:22 |
|---|---|
| Airport | North Las Vegas Airport (KVGT) |
| Time | Latitude | Longitude | Altitude | Speed | Heading |
|---|---|---|---|---|---|
| 2026-05-03 23:47 | 35.89202 | -114.89821 | 3308 ft | 132 kts | 217° |
| 2026-05-03 23:47 | 35.88578 | -114.90646 | 3348 ft | 128 kts | 218° |
| 2026-05-03 23:48 | 35.88011 | -114.91411 | 3531 ft | 117 kts | 220° |
| 2026-05-03 23:48 | 35.87470 | -114.92136 | 3605 ft | 117 kts | 220° |
| 2026-05-03 23:48 | 35.86935 | -114.92885 | 3686 ft | 116 kts | 220° |
| 2026-05-03 23:48 | 35.86427 | -114.93642 | 3827 ft | 110 kts | 221° |
| 2026-05-03 23:49 | 35.86008 | -114.94395 | 4021 ft | 102 kts | 224° |
| 2026-05-03 23:49 | 35.85644 | -114.95124 | 4190 ft | 98 kts | 228° |
| 2026-05-03 23:49 | 35.85349 | -114.95867 | 4352 ft | 97 kts | 232° |
| 2026-05-03 23:49 | 35.85110 | -114.96661 | 4557 ft | 99 kts | 237° |
| 2026-05-03 23:50 | 35.84936 | -114.97494 | 4779 ft | 100 kts | 240° |
| 2026-05-03 23:50 | 35.84831 | -114.98045 | 4918 ft | 100 kts | 242° |
| 2026-05-03 23:50 | 35.84633 | -114.99176 | 5221 ft | 100 kts | 242° |
| 2026-05-03 23:50 | 35.84511 | -115.00026 | 5443 ft | 100 kts | 243° |
| 2026-05-03 23:51 | 35.84492 | -115.00910 | 5620 ft | 121 kts | 276° |
| 2026-05-03 23:51 | 35.85231 | -115.01564 | 5829 ft | 148 kts | 351° |
| 2026-05-03 23:51 | 35.86252 | -115.01392 | 6043 ft | 149 kts | 9° |
| 2026-05-03 23:51 | 35.87276 | -115.01164 | 6233 ft | 149 kts | 9° |
| 2026-05-03 23:52 | 35.88291 | -115.00930 | 6404 ft | 146 kts | 9° |
| 2026-05-03 23:52 | 35.89296 | -115.00719 | 6585 ft | 147 kts | 10° |
| 2026-05-03 23:52 | 35.90301 | -115.00506 | 6725 ft | 146 kts | 9° |
| 2026-05-03 23:52 | 35.91294 | -115.00275 | 6907 ft | 146 kts | 10° |
| 2026-05-03 23:53 | 35.92294 | -115.00037 | 7093 ft | 147 kts | 10° |
| 2026-05-03 23:53 | 35.93299 | -114.99803 | 7282 ft | 147 kts | 10° |
| 2026-05-03 23:53 | 35.94309 | -114.99580 | 7481 ft | 147 kts | 9° |
| 2026-05-03 23:53 | 35.95300 | -114.99330 | 7669 ft | 144 kts | 11° |
| 2026-05-03 23:54 | 35.96268 | -114.99106 | 7862 ft | 139 kts | 8° |
| 2026-05-03 23:54 | 35.97226 | -114.99009 | 8041 ft | 136 kts | 341° |
| 2026-05-03 23:54 | 35.98156 | -114.99215 | 8220 ft | 135 kts | 344° |
| 2026-05-03 23:54 | 35.99052 | -114.99426 | 8451 ft | 128 kts | 342° |
| 2026-05-03 23:55 | 35.99917 | -114.99634 | 8635 ft | 125 kts | 344° |
| 2026-05-03 23:55 | 36.00753 | -114.99812 | 8819 ft | 124 kts | 341° |
| 2026-05-03 23:55 | 36.01610 | -114.99974 | 8962 ft | 124 kts | 343° |
| 2026-05-03 23:55 | 36.02450 | -115.00156 | 9099 ft | 123 kts | 341° |
| 2026-05-03 23:56 | 36.03309 | -115.00366 | 9227 ft | 128 kts | 345° |
| 2026-05-03 23:56 | 36.04202 | -115.00575 | 9342 ft | 133 kts | 341° |
| 2026-05-03 23:56 | 36.05132 | -115.00783 | 9497 ft | 138 kts | 340° |
| 2026-05-03 23:56 | 36.06077 | -115.01024 | 9653 ft | 140 kts | 342° |
| 2026-05-03 23:57 | 36.07042 | -115.01278 | 9788 ft | 144 kts | 342° |
| 2026-05-03 23:57 | 36.08037 | -115.01528 | 9927 ft | 147 kts | 342° |
| 2026-05-03 23:57 | 36.09067 | -115.01807 | 9978 ft | 157 kts | 342° |
| 2026-05-03 23:57 | 36.10165 | -115.02127 | 9979 ft | 167 kts | 341° |
| 2026-05-03 23:58 | 36.10928 | -115.02351 | 9980 ft | 172 kts | 341° |
| 2026-05-03 23:58 | 36.12112 | -115.02691 | 9981 ft | 176 kts | 342° |
| 2026-05-03 23:58 | 36.13319 | -115.03058 | 9924 ft | 180 kts | 341° |
| 2026-05-03 23:58 | 36.14544 | -115.03426 | 9923 ft | 182 kts | 342° |
| 2026-05-03 23:59 | 36.15779 | -115.03790 | 9923 ft | 183 kts | 342° |
| 2026-05-03 23:59 | 36.17015 | -115.04165 | 9925 ft | 183 kts | 342° |
| 2026-05-03 23:59 | 36.18250 | -115.04563 | 9925 ft | 183 kts | 341° |
| 2026-05-03 23:59 | 36.19494 | -115.04948 | 9924 ft | 184 kts | 342° |
| 2026-05-04 00:00 | 36.20722 | -115.05329 | 9923 ft | 184 kts | 342° |
| 2026-05-04 00:00 | 36.21972 | -115.05716 | 9921 ft | 185 kts | 342° |
| 2026-05-04 00:00 | 36.23218 | -115.06096 | 9918 ft | 184 kts | 342° |
| 2026-05-04 00:00 | 36.24466 | -115.06477 | 9923 ft | 185 kts | 342° |
| 2026-05-04 00:01 | 36.25713 | -115.06865 | 9925 ft | 184 kts | 341° |
| 2026-05-04 00:01 | 36.26955 | -115.07253 | 9924 ft | 184 kts | 342° |
| 2026-05-04 00:01 | 36.28202 | -115.07642 | 9924 ft | 184 kts | 342° |
| 2026-05-04 00:01 | 36.29447 | -115.08032 | 9924 ft | 185 kts | 342° |
| 2026-05-04 00:02 | 36.30701 | -115.08421 | 9925 ft | 186 kts | 342° |
| 2026-05-04 00:02 | 36.31957 | -115.08810 | 9921 ft | 186 kts | 342° |
| 2026-05-04 00:02 | 36.33213 | -115.09203 | 9922 ft | 187 kts | 342° |
| 2026-05-04 00:02 | 36.34474 | -115.09595 | 9921 ft | 187 kts | 342° |
| 2026-05-04 00:03 | 36.35739 | -115.09992 | 9917 ft | 187 kts | 342° |
| 2026-05-04 00:03 | 36.37008 | -115.10395 | 9918 ft | 190 kts | 342° |
| 2026-05-04 00:03 | 36.38299 | -115.10801 | 9914 ft | 191 kts | 338° |
| 2026-05-04 00:03 | 36.39298 | -115.11707 | 9858 ft | 177 kts | 296° |
| 2026-05-04 00:04 | 36.39860 | -115.13079 | 9679 ft | 181 kts | 287° |
| 2026-05-04 00:04 | 36.40362 | -115.14520 | 9497 ft | 183 kts | 286° |
| 2026-05-04 00:04 | 36.40859 | -115.15956 | 9410 ft | 176 kts | 286° |
| 2026-05-04 00:04 | 36.41374 | -115.17307 | 9420 ft | 170 kts | 286° |
| 2026-05-04 00:05 | 36.41865 | -115.18609 | 9418 ft | 161 kts | 279° |
| 2026-05-04 00:05 | 36.42121 | -115.19934 | 9419 ft | 156 kts | 273° |
| 2026-05-04 00:05 | 36.42335 | -115.21252 | 9417 ft | 155 kts | 269° |
| 2026-05-04 00:05 | 36.42600 | -115.22565 | 9417 ft | 158 kts | 273° |
| 2026-05-04 00:06 | 36.42896 | -115.23880 | 9419 ft | 157 kts | 271° |
| 2026-05-04 00:06 | 36.43013 | -115.25197 | 9424 ft | 153 kts | 261° |
| 2026-05-04 00:06 | 36.43068 | -115.26519 | 9425 ft | 153 kts | 261° |
| 2026-05-04 00:06 | 36.43121 | -115.27841 | 9431 ft | 153 kts | 261° |
| 2026-05-04 00:07 | 36.43177 | -115.29164 | 9431 ft | 154 kts | 261° |
| 2026-05-04 00:07 | 36.43236 | -115.30492 | 9431 ft | 154 kts | 261° |
| 2026-05-04 00:07 | 36.43294 | -115.31817 | 9414 ft | 153 kts | 261° |
| 2026-05-04 00:07 | 36.43348 | -115.33141 | 9426 ft | 153 kts | 266° |
| 2026-05-04 00:08 | 36.43354 | -115.34446 | 9423 ft | 153 kts | 261° |
| 2026-05-04 00:08 | 36.43184 | -115.35748 | 9366 ft | 154 kts | 250° |
| 2026-05-04 00:08 | 36.43108 | -115.37109 | 9338 ft | 158 kts | 261° |
| 2026-05-04 00:08 | 36.43072 | -115.38505 | 9174 ft | 166 kts | 261° |
| 2026-05-04 00:09 | 36.43014 | -115.39958 | 9004 ft | 169 kts | 254° |
| 2026-05-04 00:09 | 36.42427 | -115.41142 | 8810 ft | 163 kts | 213° |
| 2026-05-04 00:09 | 36.41342 | -115.41435 | 8612 ft | 166 kts | 174° |
| 2026-05-04 00:09 | 36.40221 | -115.41071 | 8430 ft | 168 kts | 166° |
| 2026-05-04 00:10 | 36.39101 | -115.40657 | 8262 ft | 168 kts | 167° |
| 2026-05-04 00:10 | 36.37988 | -115.40227 | 8072 ft | 168 kts | 164° |
| 2026-05-04 00:10 | 36.36915 | -115.39616 | 7876 ft | 171 kts | 153° |
| 2026-05-04 00:10 | 36.35982 | -115.38676 | 7614 ft | 175 kts | 141° |
| 2026-05-04 00:11 | 36.35104 | -115.37569 | 7183 ft | 183 kts | 139° |
| 2026-05-04 00:11 | 36.34208 | -115.36416 | 6716 ft | 187 kts | 140° |
| 2026-05-04 00:11 | 36.33305 | -115.35260 | 6255 ft | 185 kts | 141° |
| 2026-05-04 00:11 | 36.32423 | -115.34137 | 5782 ft | 183 kts | 139° |
| 2026-05-04 00:12 | 36.31529 | -115.33014 | 5322 ft | 183 kts | 143° |
| 2026-05-04 00:12 | 36.30633 | -115.31885 | 4845 ft | 185 kts | 141° |
| 2026-05-04 00:12 | 36.29735 | -115.30732 | 4440 ft | 183 kts | 139° |
| 2026-05-04 00:12 | 36.28906 | -115.29667 | 4213 ft | 159 kts | 140° |
| 2026-05-04 00:13 | 36.28169 | -115.28731 | 4025 ft | 146 kts | 140° |
| 2026-05-04 00:13 | 36.27467 | -115.27845 | 3839 ft | 142 kts | 140° |
| 2026-05-04 00:13 | 36.26776 | -115.26977 | 3661 ft | 141 kts | 140° |
| 2026-05-04 00:13 | 36.26094 | -115.26116 | 3487 ft | 140 kts | 138° |
| 2026-05-04 00:14 | 36.25414 | -115.25260 | 3308 ft | 137 kts | 138° |
| 2026-05-04 00:14 | 36.24760 | -115.24427 | 3140 ft | 132 kts | 138° |
| 2026-05-04 00:14 | 36.24119 | -115.23616 | 2986 ft | 132 kts | 135° |
| 2026-05-04 00:14 | 36.23803 | -115.22560 | 2936 ft | 136 kts | 97° |
| 2026-05-04 00:15 | 36.23813 | -115.21482 | 3002 ft | 120 kts | 98° |
| 2026-05-04 00:15 | 36.23824 | -115.20484 | 3086 ft | 113 kts | 91° |
| 2026-05-04 00:15 | 36.23903 | -115.19504 | 3163 ft | 115 kts | 93° |
| 2026-05-04 00:15 | 36.23962 | -115.18494 | 3110 ft | 125 kts | 91° |
| 2026-05-04 00:16 | 36.24004 | -115.17424 | 3116 ft | 120 kts | 98° |
| 2026-05-04 00:16 | 36.23905 | -115.16424 | 3090 ft | 115 kts | 118° |
| 2026-05-04 00:16 | 36.23394 | -115.15797 | 3019 ft | 102 kts | 169° |
| 2026-05-04 00:16 | 36.22720 | -115.15739 | 2916 ft | 100 kts | 184° |
| 2026-05-04 00:17 | 36.22095 | -115.15909 | 2694 ft | 98 kts | 221° |
| 2026-05-04 00:17 | 36.21667 | -115.16559 | 2541 ft | 95 kts | 236° |
| 2026-05-04 00:17 | 36.21447 | -115.17320 | 2371 ft | 94 kts | 258° |
| 2026-05-04 00:17 | 36.21388 | -115.18081 | 2297 ft | 89 kts | 260° |
| 2026-05-04 00:18 | 36.21362 | -115.18850 | 2196 ft | 88 kts | 265° |
| 2026-05-04 00:18 | 36.21353 | -115.19520 | 2251 ft | 73 kts | 263° |
| 2026-05-04 00:18 | 36.21387 | -115.20187 | 2369 ft | 82 kts | 268° |
| 2026-05-04 00:18 | 36.21439 | -115.20927 | 2551 ft | 89 kts | 269° |
| 2026-05-04 00:19 | 36.21816 | -115.21623 | 2664 ft | 120 kts | 331° |
| 2026-05-04 00:19 | 36.22656 | -115.21540 | 2814 ft | 129 kts | 29° |
| 2026-05-04 00:19 | 36.23166 | -115.20685 | 2950 ft | 122 kts | 83° |
| 2026-05-04 00:19 | 36.23299 | -115.19624 | 3002 ft | 125 kts | 89° |
| 2026-05-04 00:20 | 36.23333 | -115.18544 | 3159 ft | 132 kts | 90° |
| 2026-05-04 00:20 | 36.23444 | -115.17363 | 3205 ft | 141 kts | 86° |
| 2026-05-04 00:20 | 36.23572 | -115.16150 | 3277 ft | 141 kts | 89° |
| 2026-05-04 00:20 | 36.23188 | -115.15269 | 3268 ft | 116 kts | 165° |
| 2026-05-04 00:21 | 36.22373 | -115.15085 | 3125 ft | 123 kts | 176° |
| 2026-05-04 00:21 | 36.21539 | -115.15065 | 3146 ft | 116 kts | 206° |
| 2026-05-04 00:21 | 36.21207 | -115.15590 | 2964 ft | 127 kts | 255° |
| 2026-05-04 00:21 | 36.21356 | -115.16721 | 2697 ft | 132 kts | 271° |
| 2026-05-04 00:22 | 36.21389 | -115.17918 | 2342 ft | 90 kts | 256° |
| 2026-05-04 00:22 | 36.21367 | -115.18627 | 2208 ft | 78 kts | 257° |
| 2026-05-04 00:22 | 36.21349 | -115.19177 | 2190 ft | 46 kts | 267° |
| 2026-05-04 00:22 | 36.21345 | -115.19490 | 2194 ft | 28 kts | 273° |
| 2026-05-04 00:23 | 36.21343 | -115.19697 | 2197 ft | 21 kts | 269° |
| 2026-05-04 00:23 | 36.21341 | -115.19819 | 2199 ft | 22 kts | 268° |
| 2026-05-04 00:23 | 36.21334 | -115.20082 | 2201 ft | 24 kts | 270° |
| 2026-05-04 00:23 | 36.21331 | -115.20276 | 2206 ft | 16 kts | 270° |
| 2026-05-04 00:24 | 36.21381 | -115.20333 | 2209 ft | 12 kts | 1° |
| 2026-05-04 00:24 | 36.21418 | -115.20322 | 2210 ft | 0 kts | 43° |